createdAt,value
2017-07-07T00:00:40.606Z,100987.73
2017-07-07T00:03:08.123Z,100987.29
2017-07-07T00:05:35.720Z,100981.65
2017-07-07T00:08:03.233Z,100977.20
2017-07-07T00:10:30.800Z,100977.66
2017-07-07T00:12:58.392Z,100957.34
2017-07-07T00:15:25.973Z,100959.47
2017-07-07T00:17:53.492Z,100952.09
2017-07-07T00:20:21.084Z,100952.00
2017-07-07T00:22:48.650Z,100946.25
2017-07-07T00:25:16.232Z,100942.23
2017-07-07T00:27:43.832Z,100932.37
2017-07-07T00:30:11.396Z,100926.98
2017-07-07T00:32:38.924Z,100926.77
2017-07-07T00:35:06.543Z,100933.59
2017-07-07T00:37:34.184Z,100930.30
2017-07-07T00:40:01.743Z,100936.32
2017-07-07T00:42:29.265Z,100932.20
2017-07-07T00:44:56.820Z,100921.66
2017-07-07T00:47:24.352Z,100905.09
2017-07-07T00:49:51.891Z,100899.00
2017-07-07T00:52:19.403Z,100890.91
2017-07-07T00:54:46.936Z,100898.67
2017-07-07T00:57:14.443Z,100902.61
2017-07-07T00:59:41.988Z,100907.20
2017-07-07T01:02:09.553Z,100898.42
2017-07-07T01:04:37.122Z,100898.84
2017-07-07T01:07:04.630Z,100906.13
2017-07-07T01:09:32.187Z,100905.66
2017-07-07T01:11:59.720Z,100911.62
2017-07-07T01:14:27.307Z,100920.05
2017-07-07T01:16:54.887Z,100916.36
2017-07-07T01:19:22.407Z,100901.78
2017-07-07T01:21:49.959Z,100899.99
2017-07-07T01:24:17.479Z,100911.34
2017-07-07T01:26:45.040Z,100908.04
2017-07-07T01:29:12.568Z,100913.49
2017-07-07T01:31:40.080Z,100893.79
2017-07-07T01:34:07.648Z,100885.70
2017-07-07T01:36:35.352Z,100884.56
2017-07-07T01:39:02.875Z,100880.33
2017-07-07T01:41:30.372Z,100878.27
2017-07-07T01:43:57.924Z,100886.60
2017-07-07T01:46:25.438Z,100890.12
2017-07-07T01:48:52.998Z,100879.05
2017-07-07T01:51:20.500Z,100874.69
2017-07-07T01:53:48.031Z,100878.27
2017-07-07T01:56:15.544Z,100880.07
2017-07-07T01:58:43.071Z,100882.81
2017-07-07T02:01:10.586Z,100891.28
2017-07-07T02:03:38.140Z,100894.12
2017-07-07T02:06:05.653Z,100889.45
2017-07-07T02:08:33.208Z,100881.38
2017-07-07T02:11:00.755Z,100879.08
2017-07-07T02:13:28.323Z,100876.52
2017-07-07T02:15:55.842Z,100870.67
2017-07-07T02:18:23.363Z,100865.73
2017-07-07T02:20:50.900Z,100871.48
2017-07-07T02:23:18.485Z,100872.47
2017-07-07T02:25:46.027Z,100872.93
2017-07-07T02:28:13.539Z,100869.45
2017-07-07T02:30:41.119Z,100867.85
2017-07-07T02:33:08.647Z,100869.28
2017-07-07T02:35:36.179Z,100867.06
2017-07-07T02:38:03.808Z,100873.67
2017-07-07T02:40:31.322Z,100866.66
2017-07-07T02:42:58.855Z,100877.27
2017-07-07T02:45:26.386Z,100871.24
2017-07-07T02:47:54.004Z,100882.84
2017-07-07T02:50:21.507Z,100875.87
2017-07-07T02:52:49.097Z,100883.21
2017-07-07T02:55:16.618Z,100883.75
2017-07-07T02:57:44.171Z,100888.33
2017-07-07T03:00:11.692Z,100889.13
2017-07-07T03:02:39.237Z,100893.86
2017-07-07T03:05:06.752Z,100893.38
2017-07-07T03:07:34.291Z,100896.02
2017-07-07T03:10:01.800Z,100888.54
2017-07-07T03:12:29.352Z,100889.83
2017-07-07T03:14:56.899Z,100894.87
2017-07-07T03:17:24.424Z,100894.66
2017-07-07T03:19:51.940Z,100892.23
2017-07-07T03:22:19.482Z,100901.39
2017-07-07T03:24:47.004Z,100905.14
2017-07-07T03:27:14.554Z,100901.25
2017-07-07T03:29:42.103Z,100905.13
2017-07-07T03:32:09.675Z,100910.22
2017-07-07T03:34:37.243Z,100912.53
2017-07-07T03:37:04.796Z,100904.69
2017-07-07T03:39:32.315Z,100908.36
2017-07-07T03:41:59.980Z,100917.59
2017-07-07T03:44:27.503Z,100920.91
2017-07-07T03:46:55.060Z,100922.55
2017-07-07T03:49:22.592Z,100924.59
2017-07-07T03:51:50.211Z,100929.14
2017-07-07T03:54:17.845Z,100931.46
2017-07-07T03:56:45.525Z,100933.30
2017-07-07T03:59:13.052Z,100938.16
2017-07-07T04:01:40.627Z,100937.86
2017-07-07T04:04:08.219Z,100934.97
2017-07-07T04:06:35.891Z,100932.66
2017-07-07T04:09:03.493Z,100932.67
2017-07-07T04:11:31.085Z,100938.51
2017-07-07T04:13:58.656Z,100940.11
2017-07-07T04:16:26.166Z,100936.01
2017-07-07T04:18:53.725Z,100937.95
2017-07-07T04:21:21.230Z,100935.73
2017-07-07T04:23:48.781Z,100927.52
2017-07-07T04:26:16.287Z,100926.06
2017-07-07T04:28:43.826Z,100930.86
2017-07-07T04:31:11.384Z,100930.18
2017-07-07T04:33:38.949Z,100930.34
2017-07-07T04:36:06.477Z,100928.11
2017-07-07T04:38:34.032Z,100925.27
2017-07-07T04:41:01.556Z,100925.84
2017-07-07T04:43:29.095Z,100925.14
2017-07-07T04:45:56.610Z,100925.44
2017-07-07T04:48:24.135Z,100921.84
2017-07-07T04:50:51.682Z,100923.77
2017-07-07T04:53:19.304Z,100918.71
2017-07-07T04:55:46.820Z,100926.89
2017-07-07T04:58:14.363Z,100913.97
2017-07-07T05:00:41.897Z,100913.56
2017-07-07T05:03:09.476Z,100913.31
2017-07-07T05:05:37.020Z,100916.70
2017-07-07T05:08:04.597Z,100909.42
2017-07-07T05:10:32.140Z,100909.67
2017-07-07T05:12:59.676Z,100908.22
2017-07-07T05:15:27.225Z,100905.88
2017-07-07T05:17:54.745Z,100905.17
2017-07-07T05:20:22.279Z,100909.05
2017-07-07T05:22:49.814Z,100909.91
2017-07-07T05:25:17.356Z,100912.61
2017-07-07T05:27:44.956Z,100912.36
2017-07-07T05:30:12.513Z,100917.07
2017-07-07T05:32:40.017Z,100915.80
2017-07-07T05:35:07.561Z,100920.29
2017-07-07T05:37:35.073Z,100914.87
2017-07-07T05:40:02.680Z,100914.44
2017-07-07T05:42:30.192Z,100913.64
2017-07-07T05:44:57.752Z,100917.81
2017-07-07T05:47:25.249Z,100915.63
2017-07-07T05:49:52.788Z,100913.14
2017-07-07T05:52:20.303Z,100917.77
2017-07-07T05:54:47.841Z,100913.18
2017-07-07T05:57:15.358Z,100907.63
2017-07-07T05:59:42.923Z,100908.52
2017-07-07T06:02:10.492Z,100904.28
2017-07-07T06:04:38.011Z,100899.16
2017-07-07T06:07:05.672Z,100898.36
2017-07-07T06:09:33.245Z,100899.27
2017-07-07T06:12:00.821Z,100894.52
2017-07-07T06:14:28.361Z,100899.64
2017-07-07T06:16:55.339Z,100901.94
2017-07-07T06:19:22.284Z,100908.05
2017-07-07T06:21:49.248Z,100905.92
2017-07-07T06:24:16.771Z,100905.86
2017-07-07T06:26:44.357Z,100908.64
2017-07-07T06:29:11.891Z,100902.93
2017-07-07T06:31:39.514Z,100904.81
2017-07-07T06:34:07.131Z,100908.22
2017-07-07T06:36:34.744Z,100900.38
2017-07-07T06:39:02.262Z,100902.19
2017-07-07T06:41:29.801Z,100896.06
2017-07-07T06:43:57.511Z,100895.89
2017-07-07T06:46:25.057Z,100898.23
2017-07-07T06:48:52.728Z,100895.52
2017-07-07T06:51:20.254Z,100901.42
2017-07-07T06:53:47.808Z,100900.84
2017-07-07T06:56:15.305Z,100897.16
2017-07-07T06:58:42.844Z,100901.42
2017-07-07T07:01:10.360Z,100899.52
2017-07-07T07:03:37.903Z,100897.19
2017-07-07T07:06:05.408Z,100893.88
2017-07-07T07:08:32.951Z,100896.19
2017-07-07T07:11:00.461Z,100895.32
2017-07-07T07:13:28.032Z,100895.77
2017-07-07T07:15:55.573Z,100902.65
2017-07-07T07:18:23.143Z,100903.27
2017-07-07T07:20:50.656Z,100907.13
2017-07-07T07:23:18.216Z,100906.84
2017-07-07T07:25:45.725Z,100912.84
2017-07-07T07:28:13.275Z,100916.44
2017-07-07T07:30:40.855Z,100916.67
2017-07-07T07:33:08.398Z,100913.88
2017-07-07T07:35:35.928Z,100915.98
2017-07-07T07:38:03.442Z,100913.88
2017-07-07T07:40:31.100Z,100909.02
2017-07-07T07:42:58.693Z,100916.53
2017-07-07T07:45:26.236Z,100912.33
2017-07-07T07:47:53.768Z,100908.66
2017-07-07T07:50:21.318Z,100912.05
2017-07-07T07:52:48.838Z,100907.83
2017-07-07T07:55:16.387Z,100904.84
2017-07-07T07:57:43.898Z,100907.11
2017-07-07T08:00:11.435Z,100917.03
2017-07-07T08:02:38.966Z,100910.85
2017-07-07T08:05:06.514Z,100909.80
2017-07-07T08:07:34.019Z,100911.83
2017-07-07T08:10:01.576Z,100916.52
2017-07-07T08:12:29.085Z,100915.38
2017-07-07T08:14:56.652Z,100914.36
2017-07-07T08:17:24.175Z,100915.56
2017-07-07T08:19:51.684Z,100911.03
2017-07-07T08:22:19.210Z,100914.97
2017-07-07T08:24:46.775Z,100912.52
2017-07-07T08:27:14.282Z,100912.52
2017-07-07T08:29:42.037Z,100909.95
2017-07-07T08:32:09.567Z,100908.20
2017-07-07T08:34:37.118Z,100902.01
2017-07-07T08:37:04.651Z,100901.69
2017-07-07T08:39:32.256Z,100908.58
2017-07-07T08:41:59.804Z,100911.64
2017-07-07T08:44:27.372Z,100901.92
2017-07-07T08:46:54.992Z,100901.67
2017-07-07T08:49:22.632Z,100905.70
2017-07-07T08:51:50.171Z,100912.89
2017-07-07T08:54:17.692Z,100916.11
2017-07-07T08:56:45.252Z,100910.92
2017-07-07T08:59:12.764Z,100915.71
2017-07-07T09:01:40.305Z,100916.81
2017-07-07T09:04:07.822Z,100920.91
2017-07-07T09:06:35.368Z,100909.52
2017-07-07T09:09:03.089Z,100927.09
2017-07-07T09:11:30.607Z,100920.78
2017-07-07T09:13:58.127Z,100914.69
2017-07-07T09:16:25.677Z,100915.69
2017-07-07T09:18:53.201Z,100926.72
2017-07-07T09:21:20.747Z,100928.22
2017-07-07T09:23:48.271Z,100920.36
2017-07-07T09:26:15.815Z,100921.63
2017-07-07T09:28:43.352Z,100929.77
2017-07-07T09:31:10.892Z,100932.18
2017-07-07T09:33:38.407Z,100926.96
2017-07-07T09:36:06.085Z,100926.91
2017-07-07T09:38:33.716Z,100929.08
2017-07-07T09:41:01.251Z,100938.09
2017-07-07T09:43:28.772Z,100935.56
2017-07-07T09:45:56.344Z,100934.06
2017-07-07T09:48:23.914Z,100929.74
2017-07-07T09:50:51.465Z,100930.73
2017-07-07T09:53:18.987Z,100933.91
2017-07-07T09:55:46.525Z,100928.46
2017-07-07T09:58:14.075Z,100927.44
2017-07-07T10:00:41.882Z,100937.31
2017-07-07T10:03:09.399Z,100936.25
2017-07-07T10:05:36.921Z,100934.75
2017-07-07T10:08:04.479Z,100928.51
2017-07-07T10:10:32.115Z,100931.60
2017-07-07T10:12:59.840Z,100930.41
2017-07-07T10:15:27.368Z,100930.45
2017-07-07T10:17:55.202Z,100923.75
2017-07-07T10:20:22.744Z,100921.86
2017-07-07T10:22:50.303Z,100917.63
2017-07-07T10:25:17.819Z,100908.17
2017-07-07T10:27:45.351Z,100913.19
2017-07-07T10:30:12.893Z,100915.74
2017-07-07T10:32:40.423Z,100911.96
2017-07-07T10:35:07.968Z,100911.96
2017-07-07T10:37:35.527Z,100922.10
2017-07-07T10:40:03.165Z,100920.16
2017-07-07T10:42:30.744Z,100932.93
2017-07-07T10:44:58.406Z,100922.52
2017-07-07T10:47:25.952Z,100933.34
2017-07-07T10:49:53.536Z,100918.31
2017-07-07T10:52:21.107Z,100929.16
2017-07-07T10:54:48.746Z,100934.41
2017-07-07T10:57:16.263Z,100921.36
2017-07-07T10:59:43.789Z,100929.30
2017-07-07T11:02:11.367Z,100928.20
2017-07-07T11:04:38.897Z,100921.58
2017-07-07T11:07:06.449Z,100936.62
2017-07-07T11:09:33.972Z,100933.54
2017-07-07T11:12:01.531Z,100929.83
2017-07-07T11:14:29.069Z,100939.53
2017-07-07T11:16:56.597Z,100939.13
2017-07-07T11:19:24.135Z,100934.72
2017-07-07T11:21:51.660Z,100940.88
2017-07-07T11:24:19.199Z,100937.50
2017-07-07T11:26:46.716Z,100926.61
2017-07-07T11:29:14.267Z,100934.14
2017-07-07T11:31:41.795Z,100931.83
2017-07-07T11:34:09.334Z,100928.47
2017-07-07T11:36:36.888Z,100937.91
2017-07-07T11:39:04.429Z,100932.13
2017-07-07T11:41:32.005Z,100945.47
2017-07-07T11:43:59.601Z,100939.81
2017-07-07T11:46:27.216Z,100950.16
2017-07-07T11:48:54.723Z,100937.84
2017-07-07T11:51:22.428Z,100932.07
2017-07-07T11:53:49.947Z,100934.94
2017-07-07T11:56:17.513Z,100937.63
2017-07-07T11:58:45.092Z,100940.66
2017-07-07T12:01:12.715Z,100933.80
2017-07-07T12:03:40.378Z,100932.34
2017-07-07T12:06:07.900Z,100933.72
2017-07-07T12:08:35.489Z,100933.05
2017-07-07T12:11:03.052Z,100935.13
2017-07-07T12:13:30.575Z,100942.34
2017-07-07T12:15:58.243Z,100949.50
2017-07-07T12:18:25.770Z,100940.86
2017-07-07T12:20:53.314Z,100934.45
2017-07-07T12:23:20.859Z,100941.86
2017-07-07T12:25:48.377Z,100930.81
2017-07-07T12:28:16.828Z,100935.71
2017-07-07T12:30:44.343Z,100934.67
2017-07-07T12:33:11.939Z,100943.91
2017-07-07T12:35:39.456Z,100951.33
2017-07-07T12:38:07.022Z,100945.48
2017-07-07T12:40:34.555Z,100944.47
2017-07-07T12:43:02.101Z,100957.62
2017-07-07T12:45:29.626Z,100951.31
2017-07-07T12:47:57.184Z,100954.05
2017-07-07T12:50:24.704Z,100954.00
2017-07-07T12:52:52.275Z,100956.02
2017-07-07T12:55:19.791Z,100964.01
2017-07-07T12:57:47.393Z,100964.06
2017-07-07T13:00:14.940Z,100972.56
2017-07-07T13:02:42.517Z,100966.33
2017-07-07T13:05:10.030Z,100964.33
2017-07-07T13:07:37.620Z,100962.56
2017-07-07T13:10:05.171Z,100964.64
2017-07-07T13:12:32.713Z,100969.70
2017-07-07T13:15:00.266Z,100973.94
2017-07-07T13:17:27.896Z,100974.38
2017-07-07T13:19:55.477Z,100978.36
2017-07-07T13:22:23.010Z,100979.35
2017-07-07T13:24:50.523Z,100965.06
2017-07-07T13:27:18.082Z,100971.44
2017-07-07T13:29:45.616Z,100965.51
2017-07-07T13:32:13.173Z,100961.23
2017-07-07T13:34:40.672Z,100955.30
2017-07-07T13:37:08.224Z,100966.47
2017-07-07T13:39:35.736Z,100969.95
2017-07-07T13:42:03.302Z,100979.37
2017-07-07T13:44:30.872Z,100971.48
2017-07-07T13:46:58.403Z,100964.19
2017-07-07T13:49:26.085Z,100957.83
2017-07-07T13:51:53.612Z,100964.27
2017-07-07T13:54:21.113Z,100966.09
2017-07-07T13:56:48.664Z,100962.53
2017-07-07T13:59:16.184Z,100964.94
2017-07-07T14:01:43.828Z,100972.03
2017-07-07T14:04:11.348Z,100961.02
2017-07-07T14:06:38.861Z,100962.20
2017-07-07T14:09:06.404Z,100963.95
2017-07-07T14:11:33.923Z,100952.47
2017-07-07T14:14:01.544Z,100979.27
2017-07-07T14:16:29.064Z,100969.91
2017-07-07T14:18:56.612Z,100965.72
2017-07-07T14:21:24.123Z,100961.21
2017-07-07T14:23:51.787Z,100966.57
2017-07-07T14:26:19.307Z,100960.22
2017-07-07T14:28:46.851Z,100959.24
2017-07-07T14:31:14.406Z,100964.58
2017-07-07T14:33:41.925Z,100963.59
2017-07-07T14:36:09.492Z,100953.50
2017-07-07T14:38:36.992Z,100956.46
2017-07-07T14:41:04.689Z,100952.72
2017-07-07T14:43:32.229Z,100954.88
2017-07-07T14:45:59.743Z,100965.98
2017-07-07T14:48:27.312Z,100958.22
2017-07-07T14:50:54.844Z,100959.19
2017-07-07T14:53:22.400Z,100970.88
2017-07-07T14:55:49.904Z,100955.63
2017-07-07T14:58:17.697Z,100950.53
2017-07-07T15:00:45.224Z,100962.55
2017-07-07T15:03:12.740Z,100951.05
2017-07-07T15:05:40.292Z,100955.45
2017-07-07T15:08:07.819Z,100952.84
2017-07-07T15:10:35.375Z,100955.39
2017-07-07T15:13:02.900Z,100953.64
2017-07-07T15:15:30.820Z,100957.26
2017-07-07T15:17:58.529Z,100954.05
2017-07-07T15:20:26.044Z,100955.22
2017-07-07T15:22:53.602Z,100946.73
2017-07-07T15:25:21.132Z,100949.75
2017-07-07T15:27:48.702Z,100954.29
2017-07-07T15:30:16.228Z,100943.14
2017-07-07T15:32:43.795Z,100950.52
2017-07-07T15:35:11.313Z,100937.03
2017-07-07T15:37:39.039Z,100941.04
2017-07-07T15:40:06.557Z,100939.59
2017-07-07T15:42:34.103Z,100942.61
2017-07-07T15:45:01.652Z,100946.47
2017-07-07T15:47:29.426Z,100943.12
2017-07-07T15:49:57.401Z,100938.22
2017-07-07T15:52:25.026Z,100938.05
2017-07-07T15:54:52.548Z,100937.59
2017-07-07T15:57:20.260Z,100949.87
2017-07-07T15:59:47.866Z,100946.11
2017-07-07T16:02:15.419Z,100930.48
2017-07-07T16:07:16.940Z,100943.61
2017-07-07T16:09:44.450Z,100943.67
2017-07-07T16:12:11.986Z,100948.03
2017-07-07T16:14:39.553Z,100939.58
2017-07-07T16:17:07.067Z,100942.55
2017-07-07T16:19:34.804Z,100939.70
2017-07-07T16:22:02.312Z,100946.02
2017-07-07T16:24:29.890Z,100945.29
2017-07-07T16:26:57.444Z,100946.14
2017-07-07T16:29:26.694Z,100940.30
2017-07-07T16:31:54.476Z,100942.89
2017-07-07T16:34:21.996Z,100946.97
2017-07-07T16:36:49.606Z,100947.02
2017-07-07T16:39:17.272Z,100951.73
2017-07-07T16:41:44.880Z,100948.20
2017-07-07T16:44:12.422Z,100955.03
2017-07-07T16:46:40.004Z,100956.32
2017-07-07T16:49:07.562Z,100951.87
2017-07-07T16:51:35.079Z,100958.38
2017-07-07T16:54:03.579Z,100957.45
2017-07-07T16:56:31.097Z,100958.83
2017-07-07T16:58:58.645Z,100957.00
2017-07-07T17:01:26.263Z,100954.91
2017-07-07T17:03:53.789Z,100959.07
2017-07-07T17:06:21.460Z,100955.77
2017-07-07T17:08:48.989Z,100962.37
2017-07-07T17:11:16.515Z,100958.75
2017-07-07T17:13:44.084Z,100959.53
2017-07-07T17:16:11.605Z,100967.63
2017-07-07T17:18:39.198Z,100967.74
2017-07-07T17:21:06.743Z,100967.98
2017-07-07T17:23:34.736Z,100978.41
2017-07-07T17:26:02.352Z,100972.36
2017-07-07T17:28:29.893Z,100978.63
2017-07-07T17:30:57.447Z,100975.31
2017-07-07T17:33:25.044Z,100977.62
2017-07-07T17:35:52.659Z,100984.30
2017-07-07T17:38:20.221Z,100994.47
2017-07-07T17:40:47.823Z,100998.25
2017-07-07T17:43:15.351Z,101002.19
2017-07-07T17:45:43.288Z,101000.46
2017-07-07T17:48:10.805Z,101001.82
2017-07-07T17:50:38.333Z,101010.32
2017-07-07T17:53:05.909Z,101008.45
2017-07-07T17:55:33.454Z,101006.75
2017-07-07T17:58:01.060Z,101009.22
2017-07-07T18:00:28.649Z,101012.53
2017-07-07T18:02:56.594Z,101018.10
2017-07-07T18:05:24.115Z,101020.59
2017-07-07T18:07:51.636Z,101007.89
2017-07-07T18:10:19.189Z,101015.06
2017-07-07T18:12:46.714Z,101012.41
2017-07-07T18:15:14.260Z,101021.84
2017-07-07T18:17:41.796Z,101020.05
2017-07-07T18:20:09.336Z,101020.58
2017-07-07T18:22:36.877Z,101025.09
2017-07-07T18:25:04.560Z,101024.59
2017-07-07T18:27:32.077Z,101030.84
2017-07-07T18:29:59.604Z,101036.00
2017-07-07T18:32:27.167Z,101032.46
2017-07-07T18:34:54.700Z,101030.73
2017-07-07T18:37:22.289Z,101026.32
2017-07-07T18:39:49.825Z,101023.14
2017-07-07T18:42:17.710Z,101031.45
2017-07-07T18:44:45.252Z,101029.24
2017-07-07T18:47:12.768Z,101026.13
2017-07-07T18:49:40.322Z,101022.17
2017-07-07T18:52:07.847Z,101030.55
2017-07-07T18:54:35.444Z,101026.45
2017-07-07T18:57:02.960Z,101021.02
2017-07-07T18:59:30.528Z,101024.64
2017-07-07T19:01:58.102Z,101022.73
2017-07-07T19:04:25.812Z,101025.48
2017-07-07T19:06:53.332Z,101019.61
2017-07-07T19:09:20.863Z,101027.66
2017-07-07T19:11:48.409Z,101029.44
2017-07-07T19:14:15.955Z,101025.18
2017-07-07T19:16:43.520Z,101028.92
2017-07-07T19:19:11.043Z,101025.41
2017-07-07T19:21:38.587Z,101032.08
2017-07-07T19:24:06.115Z,101037.00
2017-07-07T19:26:33.688Z,101041.27
2017-07-07T19:29:01.245Z,101049.63
2017-07-07T19:31:28.792Z,101046.73
2017-07-07T19:33:56.386Z,101044.85
2017-07-07T19:36:23.951Z,101059.02
2017-07-07T19:38:51.533Z,101051.88
2017-07-07T19:41:19.057Z,101057.70
2017-07-07T19:43:46.604Z,101059.98
2017-07-07T19:46:14.135Z,101057.97
2017-07-07T19:48:41.720Z,101060.98
2017-07-07T19:51:09.358Z,101068.28
2017-07-07T19:53:36.945Z,101071.90
2017-07-07T19:56:04.495Z,101072.22
2017-07-07T19:58:32.019Z,101071.69
2017-07-07T20:00:59.566Z,101080.16
2017-07-07T20:03:27.108Z,101080.48
2017-07-07T20:05:54.863Z,101080.28
2017-07-07T20:08:22.406Z,101091.66
2017-07-07T20:10:49.957Z,101095.47
2017-07-07T20:13:17.536Z,101096.52
2017-07-07T20:15:45.117Z,101102.56
2017-07-07T20:18:12.642Z,101102.52
2017-07-07T20:20:40.209Z,101106.14
2017-07-07T20:23:07.743Z,101106.33
2017-07-07T20:25:35.265Z,101111.11
2017-07-07T20:28:02.833Z,101116.83
2017-07-07T20:30:30.371Z,101109.89
2017-07-07T20:32:57.915Z,101113.86
2017-07-07T20:35:25.436Z,101122.91
2017-07-07T20:37:53.000Z,101118.46
2017-07-07T20:40:20.558Z,101122.30
2017-07-07T20:42:48.073Z,101133.59
2017-07-07T20:45:15.625Z,101128.79
2017-07-07T20:47:43.155Z,101129.38
2017-07-07T20:50:10.705Z,101131.71
2017-07-07T20:52:38.242Z,101124.33
2017-07-07T20:55:05.789Z,101119.61
2017-07-07T20:57:33.312Z,101121.29
2017-07-07T21:00:00.893Z,101123.18
2017-07-07T21:02:28.425Z,101128.48
2017-07-07T21:04:56.004Z,101129.27
2017-07-07T21:07:23.539Z,101120.78
2017-07-07T21:09:51.079Z,101132.36
2017-07-07T21:12:18.703Z,101131.03
2017-07-07T21:14:46.211Z,101135.20
2017-07-07T21:19:40.548Z,101146.79
2017-07-07T21:22:08.121Z,101140.87
2017-07-07T21:24:35.658Z,101149.70
2017-07-07T21:27:03.247Z,101152.20
2017-07-07T21:29:30.792Z,101155.73
2017-07-07T21:31:58.312Z,101159.70
2017-07-07T21:34:25.873Z,101159.87
2017-07-07T21:36:53.412Z,101159.59
2017-07-07T21:39:20.930Z,101165.23
2017-07-07T21:41:48.739Z,101169.70
2017-07-07T21:44:16.260Z,101175.98
2017-07-07T21:46:43.778Z,101171.14
2017-07-07T21:49:11.311Z,101176.89
2017-07-07T21:51:38.871Z,101173.42
2017-07-07T21:54:06.408Z,101172.56
2017-07-07T21:56:33.927Z,101170.63
2017-07-07T21:59:01.556Z,101172.89
2017-07-07T22:01:29.096Z,101172.05
2017-07-07T22:03:56.650Z,101175.42
2017-07-07T22:06:24.174Z,101173.77
2017-07-07T22:08:51.709Z,101177.52
2017-07-07T22:11:19.264Z,101174.03
2017-07-07T22:13:46.830Z,101168.08
2017-07-07T22:16:14.340Z,101169.13
2017-07-07T22:18:41.903Z,101166.11
2017-07-07T22:21:09.413Z,101166.39
2017-07-07T22:23:36.957Z,101166.05
2017-07-07T22:26:04.485Z,101163.20
2017-07-07T22:28:32.035Z,101161.04
2017-07-07T22:30:59.908Z,101162.31
2017-07-07T22:33:27.463Z,101160.70
2017-07-07T22:35:54.978Z,101164.98
2017-07-07T22:38:22.488Z,101160.13
2017-07-07T22:40:50.036Z,101158.83
2017-07-07T22:43:17.701Z,101167.38
2017-07-07T22:45:45.261Z,101171.85
2017-07-07T22:48:12.788Z,101168.56
2017-07-07T22:50:40.408Z,101168.77
2017-07-07T22:53:07.943Z,101171.92
2017-07-07T22:55:35.501Z,101165.73
2017-07-07T22:58:03.036Z,101162.23
2017-07-07T23:00:30.622Z,101160.66
2017-07-07T23:02:58.136Z,101163.50
2017-07-07T23:05:25.874Z,101170.27
2017-07-07T23:07:53.388Z,101164.14
2017-07-07T23:10:20.913Z,101171.41
2017-07-07T23:12:52.095Z,101167.05
2017-07-07T23:15:19.783Z,101162.17
2017-07-07T23:17:47.409Z,101169.27
2017-07-07T23:20:14.941Z,101167.47
2017-07-07T23:22:42.501Z,101157.54
2017-07-07T23:25:10.027Z,101162.48
2017-07-07T23:27:37.604Z,101155.76
2017-07-07T23:30:05.132Z,101154.57
2017-07-07T23:32:32.895Z,101151.51
2017-07-07T23:35:00.427Z,101158.38
2017-07-07T23:37:27.949Z,101161.50
2017-07-07T23:39:55.492Z,101159.33
2017-07-07T23:42:23.108Z,101161.98
2017-07-07T23:44:50.616Z,101163.00
2017-07-07T23:47:18.171Z,101164.30
2017-07-07T23:49:45.780Z,101164.13
2017-07-07T23:52:13.299Z,101162.58
2017-07-07T23:54:40.868Z,101159.28
2017-07-07T23:57:08.380Z,101163.44
2017-07-07T23:59:35.940Z,101155.50
